sensor_id;sensor_type;location;lat;lon;timestamp;temperature;humidity
506;DHT22;551;48.524;9.056;2024-03-02T00:02:11;6.00;1.00
506;DHT22;551;48.524;9.056;2024-03-02T00:04:36;6.00;1.00
506;DHT22;551;48.524;9.056;2024-03-02T00:07:02;6.00;1.00
506;DHT22;551;48.524;9.056;2024-03-02T00:09:29;6.00;1.00
506;DHT22;551;48.524;9.056;2024-03-02T00:11:54;6.00;1.00
506;DHT22;551;48.524;9.056;2024-03-02T00:14:20;6.00;1.00
506;DHT22;551;48.524;9.056;2024-03-02T00:16:46;6.00;1.00
506;DHT22;551;48.524;9.056;2024-03-02T00:19:12;6.00;1.00
506;DHT22;551;48.524;9.056;2024-03-02T00:21:38;6.00;1.00
506;DHT22;551;48.524;9.056;2024-03-02T00:24:28;6.00;1.00
506;DHT22;551;48.524;9.056;2024-03-02T00:26:56;6.00;1.00
506;DHT22;551;48.524;9.056;2024-03-02T00:29:22;6.00;1.00
506;DHT22;551;48.524;9.056;2024-03-02T00:31:48;6.00;1.00
506;DHT22;551;48.524;9.056;2024-03-02T00:34:14;6.00;1.00
506;DHT22;551;48.524;9.056;2024-03-02T00:36:41;6.10;1.00
506;DHT22;551;48.524;9.056;2024-03-02T00:39:07;6.10;1.00
506;DHT22;551;48.524;9.056;2024-03-02T00:41:33;6.10;1.00
506;DHT22;551;48.524;9.056;2024-03-02T00:46:32;6.10;1.00
506;DHT22;551;48.524;9.056;2024-03-02T00:49:44;6.10;1.00
506;DHT22;551;48.524;9.056;2024-03-02T00:51:49;6.20;1.00
506;DHT22;551;48.524;9.056;2024-03-02T00:54:15;6.10;1.00
506;DHT22;551;48.524;9.056;2024-03-02T00:56:41;6.10;1.00
506;DHT22;551;48.524;9.056;2024-03-02T00:59:07;6.10;1.00
506;DHT22;551;48.524;9.056;2024-03-02T01:01:34;6.10;1.00
506;DHT22;551;48.524;9.056;2024-03-02T01:03:59;6.10;1.00
506;DHT22;551;48.524;9.056;2024-03-02T01:06:25;6.10;1.00
506;DHT22;551;48.524;9.056;2024-03-02T01:08:51;6.00;1.00
506;DHT22;551;48.524;9.056;2024-03-02T01:11:17;6.10;1.00
506;DHT22;551;48.524;9.056;2024-03-02T01:13:43;6.00;1.00
506;DHT22;551;48.524;9.056;2024-03-02T01:16:09;6.00;1.00
506;DHT22;551;48.524;9.056;2024-03-02T01:18:34;6.00;1.00
506;DHT22;551;48.524;9.056;2024-03-02T01:21:00;5.90;1.00
506;DHT22;551;48.524;9.056;2024-03-02T01:23:25;5.90;1.00
506;DHT22;551;48.524;9.056;2024-03-02T01:25:51;5.90;1.00
506;DHT22;551;48.524;9.056;2024-03-02T01:28:18;5.90;1.00
506;DHT22;551;48.524;9.056;2024-03-02T01:30:44;5.90;1.00
506;DHT22;551;48.524;9.056;2024-03-02T01:33:10;5.80;1.00
506;DHT22;551;48.524;9.056;2024-03-02T01:35:36;5.80;1.00
506;DHT22;551;48.524;9.056;2024-03-02T01:38:02;5.70;1.00
506;DHT22;551;48.524;9.056;2024-03-02T01:40:28;5.70;1.00
506;DHT22;551;48.524;9.056;2024-03-02T01:42:54;5.70;1.00
506;DHT22;551;48.524;9.056;2024-03-02T01:45:20;5.70;1.00
506;DHT22;551;48.524;9.056;2024-03-02T01:47:46;5.60;1.00
506;DHT22;551;48.524;9.056;2024-03-02T01:50:12;5.60;1.00
506;DHT22;551;48.524;9.056;2024-03-02T01:52:39;5.60;1.00
506;DHT22;551;48.524;9.056;2024-03-02T01:55:05;5.50;1.00
506;DHT22;551;48.524;9.056;2024-03-02T01:57:34;5.40;1.00
506;DHT22;551;48.524;9.056;2024-03-02T02:00:00;5.40;1.00
506;DHT22;551;48.524;9.056;2024-03-02T02:02:26;5.40;1.00
506;DHT22;551;48.524;9.056;2024-03-02T02:04:51;5.30;1.00
506;DHT22;551;48.524;9.056;2024-03-02T02:07:17;5.30;1.00
506;DHT22;551;48.524;9.056;2024-03-02T02:09:43;5.30;1.00
506;DHT22;551;48.524;9.056;2024-03-02T02:12:09;5.20;1.00
506;DHT22;551;48.524;9.056;2024-03-02T02:14:35;5.20;1.00
506;DHT22;551;48.524;9.056;2024-03-02T02:17:01;5.20;1.00
506;DHT22;551;48.524;9.056;2024-03-02T02:19:27;5.10;1.00
506;DHT22;551;48.524;9.056;2024-03-02T02:21:52;5.10;1.00
506;DHT22;551;48.524;9.056;2024-03-02T02:24:18;5.10;1.00
506;DHT22;551;48.524;9.056;2024-03-02T02:26:44;5.10;1.00
506;DHT22;551;48.524;9.056;2024-03-02T02:29:09;5.00;1.00
506;DHT22;551;48.524;9.056;2024-03-02T02:31:38;4.90;1.00
506;DHT22;551;48.524;9.056;2024-03-02T02:34:04;5.00;1.00
506;DHT22;551;48.524;9.056;2024-03-02T02:36:30;4.90;1.00
506;DHT22;551;48.524;9.056;2024-03-02T02:38:56;4.90;1.00
506;DHT22;551;48.524;9.056;2024-03-02T02:41:22;4.80;1.00
506;DHT22;551;48.524;9.056;2024-03-02T02:43:48;4.80;1.00
506;DHT22;551;48.524;9.056;2024-03-02T02:46:13;4.80;1.00
506;DHT22;551;48.524;9.056;2024-03-02T02:48:39;4.70;1.00
506;DHT22;551;48.524;9.056;2024-03-02T02:51:04;4.70;1.00
506;DHT22;551;48.524;9.056;2024-03-02T02:53:30;4.60;1.00
506;DHT22;551;48.524;9.056;2024-03-02T02:55:55;4.60;1.00
506;DHT22;551;48.524;9.056;2024-03-02T02:58:21;4.50;1.00
506;DHT22;551;48.524;9.056;2024-03-02T03:00:46;4.50;1.00
506;DHT22;551;48.524;9.056;2024-03-02T03:03:12;4.50;1.00
506;DHT22;551;48.524;9.056;2024-03-02T03:05:37;4.50;1.00
506;DHT22;551;48.524;9.056;2024-03-02T03:08:03;4.40;1.00
506;DHT22;551;48.524;9.056;2024-03-02T03:10:28;4.40;1.00
506;DHT22;551;48.524;9.056;2024-03-02T03:12:54;4.40;1.00
506;DHT22;551;48.524;9.056;2024-03-02T03:15:21;4.30;1.00
506;DHT22;551;48.524;9.056;2024-03-02T03:17:46;4.30;1.00
506;DHT22;551;48.524;9.056;2024-03-02T03:20:12;4.30;1.00
506;DHT22;551;48.524;9.056;2024-03-02T03:22:38;4.20;1.00
506;DHT22;551;48.524;9.056;2024-03-02T03:25:04;4.30;1.00
506;DHT22;551;48.524;9.056;2024-03-02T03:27:30;4.30;1.00
506;DHT22;551;48.524;9.056;2024-03-02T03:29:55;4.20;1.00
506;DHT22;551;48.524;9.056;2024-03-02T03:32:21;4.20;1.00
506;DHT22;551;48.524;9.056;2024-03-02T03:34:47;4.20;1.00
506;DHT22;551;48.524;9.056;2024-03-02T03:37:14;4.20;1.00
506;DHT22;551;48.524;9.056;2024-03-02T03:39:39;4.10;1.00
506;DHT22;551;48.524;9.056;2024-03-02T03:42:05;4.10;1.00
506;DHT22;551;48.524;9.056;2024-03-02T03:44:31;4.10;1.00
506;DHT22;551;48.524;9.056;2024-03-02T03:46:56;4.10;1.00
506;DHT22;551;48.524;9.056;2024-03-02T03:49:22;4.00;1.00
506;DHT22;551;48.524;9.056;2024-03-02T03:51:47;4.00;1.00
506;DHT22;551;48.524;9.056;2024-03-02T03:54:13;4.00;1.00
506;DHT22;551;48.524;9.056;2024-03-02T03:56:38;4.00;1.00
506;DHT22;551;48.524;9.056;2024-03-02T03:59:04;4.00;1.00
506;DHT22;551;48.524;9.056;2024-03-02T04:01:30;4.00;1.00
506;DHT22;551;48.524;9.056;2024-03-02T04:03:57;3.90;1.00
506;DHT22;551;48.524;9.056;2024-03-02T04:06:22;3.90;1.00
506;DHT22;551;48.524;9.056;2024-03-02T04:08:48;3.80;1.00
506;DHT22;551;48.524;9.056;2024-03-02T04:11:13;3.90;1.00
506;DHT22;551;48.524;9.056;2024-03-02T04:13:39;3.90;1.00
506;DHT22;551;48.524;9.056;2024-03-02T04:16:05;3.80;1.00
506;DHT22;551;48.524;9.056;2024-03-02T04:18:31;3.90;1.00
506;DHT22;551;48.524;9.056;2024-03-02T04:20:57;3.90;1.00
506;DHT22;551;48.524;9.056;2024-03-02T04:23:25;3.90;1.00
506;DHT22;551;48.524;9.056;2024-03-02T04:25:50;3.90;1.00
506;DHT22;551;48.524;9.056;2024-03-02T04:28:16;3.90;1.00
506;DHT22;551;48.524;9.056;2024-03-02T04:30:42;3.90;1.00
506;DHT22;551;48.524;9.056;2024-03-02T04:33:08;3.90;1.00
506;DHT22;551;48.524;9.056;2024-03-02T04:35:38;3.90;1.00
506;DHT22;551;48.524;9.056;2024-03-02T04:38:04;3.90;1.00
506;DHT22;551;48.524;9.056;2024-03-02T04:40:29;4.00;1.00
506;DHT22;551;48.524;9.056;2024-03-02T04:42:55;4.00;1.00
506;DHT22;551;48.524;9.056;2024-03-02T04:45:20;4.10;1.00
506;DHT22;551;48.524;9.056;2024-03-02T04:47:46;4.00;1.00
506;DHT22;551;48.524;9.056;2024-03-02T04:50:11;4.10;1.00
506;DHT22;551;48.524;9.056;2024-03-02T04:52:37;4.00;1.00
506;DHT22;551;48.524;9.056;2024-03-02T04:55:03;4.00;1.00
506;DHT22;551;48.524;9.056;2024-03-02T04:57:47;4.00;1.00
506;DHT22;551;48.524;9.056;2024-03-02T05:00:13;4.00;1.00
506;DHT22;551;48.524;9.056;2024-03-02T05:02:39;4.10;1.00
506;DHT22;551;48.524;9.056;2024-03-02T05:05:04;4.10;1.00
506;DHT22;551;48.524;9.056;2024-03-02T05:07:30;4.10;1.00
506;DHT22;551;48.524;9.056;2024-03-02T05:09:55;4.00;1.00
506;DHT22;551;48.524;9.056;2024-03-02T05:12:21;3.80;1.00
506;DHT22;551;48.524;9.056;2024-03-02T05:15:06;3.80;1.00
506;DHT22;551;48.524;9.056;2024-03-02T05:17:32;3.80;1.00
506;DHT22;551;48.524;9.056;2024-03-02T05:19:58;3.80;1.00
506;DHT22;551;48.524;9.056;2024-03-02T05:22:24;3.80;1.00
506;DHT22;551;48.524;9.056;2024-03-02T05:24:49;3.80;1.00
506;DHT22;551;48.524;9.056;2024-03-02T05:27:15;3.90;1.00
506;DHT22;551;48.524;9.056;2024-03-02T05:29:40;3.90;1.00
506;DHT22;551;48.524;9.056;2024-03-02T05:32:06;4.00;1.00
506;DHT22;551;48.524;9.056;2024-03-02T05:34:31;4.00;1.00
506;DHT22;551;48.524;9.056;2024-03-02T05:36:58;4.00;1.00
506;DHT22;551;48.524;9.056;2024-03-02T05:39:23;4.00;1.00
506;DHT22;551;48.524;9.056;2024-03-02T05:41:49;4.00;1.00
506;DHT22;551;48.524;9.056;2024-03-02T05:44:14;4.00;1.00
506;DHT22;551;48.524;9.056;2024-03-02T05:46:41;4.00;1.00
506;DHT22;551;48.524;9.056;2024-03-02T05:49:07;4.00;1.00
506;DHT22;551;48.524;9.056;2024-03-02T05:51:33;3.90;1.00
506;DHT22;551;48.524;9.056;2024-03-02T05:53:58;3.80;1.00
506;DHT22;551;48.524;9.056;2024-03-02T05:56:24;3.80;1.00
506;DHT22;551;48.524;9.056;2024-03-02T05:58:49;3.70;1.00
506;DHT22;551;48.524;9.056;2024-03-02T06:01:34;3.50;1.00
506;DHT22;551;48.524;9.056;2024-03-02T06:03:59;3.40;1.00
506;DHT22;551;48.524;9.056;2024-03-02T06:06:25;3.40;1.00
506;DHT22;551;48.524;9.056;2024-03-02T06:08:51;3.40;1.00
506;DHT22;551;48.524;9.056;2024-03-02T06:11:19;3.40;1.00
506;DHT22;551;48.524;9.056;2024-03-02T06:13:44;3.40;1.00
506;DHT22;551;48.524;9.056;2024-03-02T06:16:10;3.50;1.00
506;DHT22;551;48.524;9.056;2024-03-02T06:18:35;3.60;1.00
506;DHT22;551;48.524;9.056;2024-03-02T06:21:01;3.60;1.00
506;DHT22;551;48.524;9.056;2024-03-02T06:23:26;3.70;1.00
506;DHT22;551;48.524;9.056;2024-03-02T06:25:52;3.80;1.00
506;DHT22;551;48.524;9.056;2024-03-02T06:28:18;3.90;1.00
506;DHT22;551;48.524;9.056;2024-03-02T06:30:43;3.90;1.00
506;DHT22;551;48.524;9.056;2024-03-02T06:33:09;3.90;1.00
506;DHT22;551;48.524;9.056;2024-03-02T06:35:35;3.90;1.00
506;DHT22;551;48.524;9.056;2024-03-02T06:38:01;3.90;1.00
506;DHT22;551;48.524;9.056;2024-03-02T06:40:26;3.90;1.00
506;DHT22;551;48.524;9.056;2024-03-02T06:42:52;4.00;1.00
506;DHT22;551;48.524;9.056;2024-03-02T06:45:17;4.00;1.00
506;DHT22;551;48.524;9.056;2024-03-02T06:47:43;4.00;1.00
506;DHT22;551;48.524;9.056;2024-03-02T06:50:09;4.10;1.00
506;DHT22;551;48.524;9.056;2024-03-02T06:52:35;4.10;1.00
506;DHT22;551;48.524;9.056;2024-03-02T06:55:00;4.10;1.00
506;DHT22;551;48.524;9.056;2024-03-02T06:57:26;4.10;1.00
506;DHT22;551;48.524;9.056;2024-03-02T06:59:52;4.20;1.00
506;DHT22;551;48.524;9.056;2024-03-02T07:02:20;4.20;1.00
506;DHT22;551;48.524;9.056;2024-03-02T07:04:46;4.30;1.00
506;DHT22;551;48.524;9.056;2024-03-02T07:07:12;4.50;1.00
506;DHT22;551;48.524;9.056;2024-03-02T07:09:38;4.70;1.00
506;DHT22;551;48.524;9.056;2024-03-02T07:12:03;4.80;1.00
506;DHT22;551;48.524;9.056;2024-03-02T07:14:29;5.10;1.00
506;DHT22;551;48.524;9.056;2024-03-02T07:17:13;5.40;1.00
506;DHT22;551;48.524;9.056;2024-03-02T07:19:39;5.50;1.00
506;DHT22;551;48.524;9.056;2024-03-02T07:22:08;5.50;1.00
506;DHT22;551;48.524;9.056;2024-03-02T07:24:42;5.50;1.00
506;DHT22;551;48.524;9.056;2024-03-02T07:27:09;5.60;1.00
506;DHT22;551;48.524;9.056;2024-03-02T07:29:35;5.70;1.00
506;DHT22;551;48.524;9.056;2024-03-02T07:32:00;5.50;1.00
506;DHT22;551;48.524;9.056;2024-03-02T07:34:26;5.60;1.00
506;DHT22;551;48.524;9.056;2024-03-02T07:36:51;5.50;1.00
506;DHT22;551;48.524;9.056;2024-03-02T07:39:17;5.40;1.00
506;DHT22;551;48.524;9.056;2024-03-02T07:41:43;5.40;1.00
506;DHT22;551;48.524;9.056;2024-03-02T07:44:09;5.50;1.00
506;DHT22;551;48.524;9.056;2024-03-02T07:46:34;5.50;1.00
506;DHT22;551;48.524;9.056;2024-03-02T07:49:00;5.70;1.00
506;DHT22;551;48.524;9.056;2024-03-02T07:51:25;5.80;1.00
506;DHT22;551;48.524;9.056;2024-03-02T07:53:51;5.90;1.00
506;DHT22;551;48.524;9.056;2024-03-02T07:56:17;6.00;1.00
506;DHT22;551;48.524;9.056;2024-03-02T07:58:48;6.20;1.00
506;DHT22;551;48.524;9.056;2024-03-02T08:01:14;6.60;1.00
506;DHT22;551;48.524;9.056;2024-03-02T08:03:40;7.20;1.00
506;DHT22;551;48.524;9.056;2024-03-02T08:06:06;7.90;1.00
506;DHT22;551;48.524;9.056;2024-03-02T08:08:31;8.90;1.00
506;DHT22;551;48.524;9.056;2024-03-02T08:10:57;10.20;1.00
506;DHT22;551;48.524;9.056;2024-03-02T08:13:22;11.80;1.00
506;DHT22;551;48.524;9.056;2024-03-02T08:15:48;13.30;1.00
506;DHT22;551;48.524;9.056;2024-03-02T08:18:13;14.20;1.00
506;DHT22;551;48.524;9.056;2024-03-02T08:20:40;15.10;1.00
506;DHT22;551;48.524;9.056;2024-03-02T08:23:06;15.20;1.00
506;DHT22;551;48.524;9.056;2024-03-02T08:25:31;14.80;1.00
506;DHT22;551;48.524;9.056;2024-03-02T08:27:57;15.00;1.00
506;DHT22;551;48.524;9.056;2024-03-02T08:30:23;15.20;1.00
506;DHT22;551;48.524;9.056;2024-03-02T08:32:48;14.70;1.00
506;DHT22;551;48.524;9.056;2024-03-02T08:35:14;14.00;1.00
506;DHT22;551;48.524;9.056;2024-03-02T08:37:41;13.20;1.00
506;DHT22;551;48.524;9.056;2024-03-02T08:40:08;12.80;1.00
506;DHT22;551;48.524;9.056;2024-03-02T08:42:33;12.30;1.00
506;DHT22;551;48.524;9.056;2024-03-02T08:44:59;12.10;1.00
506;DHT22;551;48.524;9.056;2024-03-02T08:47:26;11.80;1.00
506;DHT22;551;48.524;9.056;2024-03-02T08:49:52;11.70;1.00
506;DHT22;551;48.524;9.056;2024-03-02T08:52:18;11.70;1.00
506;DHT22;551;48.524;9.056;2024-03-02T08:54:43;12.00;1.00
506;DHT22;551;48.524;9.056;2024-03-02T08:57:09;12.30;1.00
506;DHT22;551;48.524;9.056;2024-03-02T08:59:35;13.00;1.00
506;DHT22;551;48.524;9.056;2024-03-02T09:02:00;13.80;1.00
506;DHT22;551;48.524;9.056;2024-03-02T09:04:26;14.60;1.00
506;DHT22;551;48.524;9.056;2024-03-02T09:06:52;16.50;1.00
506;DHT22;551;48.524;9.056;2024-03-02T09:09:18;18.20;1.00
506;DHT22;551;48.524;9.056;2024-03-02T09:11:44;20.00;1.00
506;DHT22;551;48.524;9.056;2024-03-02T09:14:10;21.30;1.00
506;DHT22;551;48.524;9.056;2024-03-02T09:16:36;22.60;1.00
506;DHT22;551;48.524;9.056;2024-03-02T09:19:02;23.20;1.00
506;DHT22;551;48.524;9.056;2024-03-02T09:21:27;23.80;1.00
506;DHT22;551;48.524;9.056;2024-03-02T09:23:55;25.00;1.00
506;DHT22;551;48.524;9.056;2024-03-02T09:26:20;25.40;1.00
506;DHT22;551;48.524;9.056;2024-03-02T09:28:46;25.90;1.00
506;DHT22;551;48.524;9.056;2024-03-02T09:31:12;26.50;1.00
506;DHT22;551;48.524;9.056;2024-03-02T09:33:37;27.10;1.00
506;DHT22;551;48.524;9.056;2024-03-02T09:36:04;27.40;1.00
506;DHT22;551;48.524;9.056;2024-03-02T09:38:32;27.80;1.00
506;DHT22;551;48.524;9.056;2024-03-02T09:41:00;28.20;1.00
506;DHT22;551;48.524;9.056;2024-03-02T09:43:26;28.40;1.00
506;DHT22;551;48.524;9.056;2024-03-02T09:45:52;29.40;1.00
506;DHT22;551;48.524;9.056;2024-03-02T09:48:18;29.40;1.00
506;DHT22;551;48.524;9.056;2024-03-02T09:50:46;29.90;1.00
506;DHT22;551;48.524;9.056;2024-03-02T09:53:12;30.20;1.00
506;DHT22;551;48.524;9.056;2024-03-02T09:55:39;30.00;1.00
506;DHT22;551;48.524;9.056;2024-03-02T09:58:09;30.00;1.00
506;DHT22;551;48.524;9.056;2024-03-02T10:00:34;30.00;1.00
506;DHT22;551;48.524;9.056;2024-03-02T10:03:00;29.60;1.00
506;DHT22;551;48.524;9.056;2024-03-02T10:05:26;29.40;1.00
506;DHT22;551;48.524;9.056;2024-03-02T10:08:04;29.10;1.00
506;DHT22;551;48.524;9.056;2024-03-02T10:10:40;29.20;1.00
506;DHT22;551;48.524;9.056;2024-03-02T10:13:06;29.50;1.00
506;DHT22;551;48.524;9.056;2024-03-02T10:15:33;29.30;1.00
506;DHT22;551;48.524;9.056;2024-03-02T10:17:58;29.80;1.00
506;DHT22;551;48.524;9.056;2024-03-02T10:20:25;29.80;1.00
506;DHT22;551;48.524;9.056;2024-03-02T10:22:51;30.00;1.00
506;DHT22;551;48.524;9.056;2024-03-02T10:25:33;29.80;1.00
506;DHT22;551;48.524;9.056;2024-03-02T10:27:59;29.70;1.00
506;DHT22;551;48.524;9.056;2024-03-02T10:30:25;29.70;1.00
506;DHT22;551;48.524;9.056;2024-03-02T10:32:53;29.70;1.00
506;DHT22;551;48.524;9.056;2024-03-02T10:35:20;29.40;1.00
506;DHT22;551;48.524;9.056;2024-03-02T10:37:47;29.80;1.00
506;DHT22;551;48.524;9.056;2024-03-02T10:40:13;29.90;1.00
506;DHT22;551;48.524;9.056;2024-03-02T10:42:40;30.10;1.00
506;DHT22;551;48.524;9.056;2024-03-02T10:45:10;30.30;1.00
506;DHT22;551;48.524;9.056;2024-03-02T10:47:38;30.50;1.00
506;DHT22;551;48.524;9.056;2024-03-02T10:50:05;30.60;1.00
506;DHT22;551;48.524;9.056;2024-03-02T10:52:39;30.70;1.00
506;DHT22;551;48.524;9.056;2024-03-02T10:55:06;31.00;1.00
506;DHT22;551;48.524;9.056;2024-03-02T11:00:08;31.70;1.00
506;DHT22;551;48.524;9.056;2024-03-02T11:02:42;31.50;1.00
506;DHT22;551;48.524;9.056;2024-03-02T11:05:18;31.80;1.00
506;DHT22;551;48.524;9.056;2024-03-02T11:07:46;31.50;1.00
506;DHT22;551;48.524;9.056;2024-03-02T11:10:12;32.00;1.00
506;DHT22;551;48.524;9.056;2024-03-02T11:12:39;32.00;1.00
506;DHT22;551;48.524;9.056;2024-03-02T11:15:11;31.80;1.00
506;DHT22;551;48.524;9.056;2024-03-02T11:17:39;32.00;1.00
506;DHT22;551;48.524;9.056;2024-03-02T11:20:06;31.90;1.00
506;DHT22;551;48.524;9.056;2024-03-02T11:22:35;31.90;1.00
506;DHT22;551;48.524;9.056;2024-03-02T11:25:01;32.00;1.00
506;DHT22;551;48.524;9.056;2024-03-02T11:35:28;30.70;1.00
506;DHT22;551;48.524;9.056;2024-03-02T11:37:54;30.20;1.00
506;DHT22;551;48.524;9.056;2024-03-02T11:40:24;29.70;1.00
506;DHT22;551;48.524;9.056;2024-03-02T11:42:50;29.50;1.00
506;DHT22;551;48.524;9.056;2024-03-02T11:45:17;29.90;1.00
506;DHT22;551;48.524;9.056;2024-03-02T11:47:49;29.60;1.00
506;DHT22;551;48.524;9.056;2024-03-02T11:50:15;29.90;1.00
506;DHT22;551;48.524;9.056;2024-03-02T11:52:42;30.40;1.00
506;DHT22;551;48.524;9.056;2024-03-02T11:55:08;30.80;1.00
506;DHT22;551;48.524;9.056;2024-03-02T11:57:35;31.20;1.00
506;DHT22;551;48.524;9.056;2024-03-02T12:00:02;31.00;1.00
506;DHT22;551;48.524;9.056;2024-03-02T12:02:29;30.70;1.00
506;DHT22;551;48.524;9.056;2024-03-02T12:04:54;30.60;1.00
506;DHT22;551;48.524;9.056;2024-03-02T12:07:23;30.80;1.00
506;DHT22;551;48.524;9.056;2024-03-02T12:10:09;31.30;1.00
506;DHT22;551;48.524;9.056;2024-03-02T12:12:34;31.90;1.00
506;DHT22;551;48.524;9.056;2024-03-02T12:15:00;32.00;1.00
506;DHT22;551;48.524;9.056;2024-03-02T12:17:26;32.20;1.00
506;DHT22;551;48.524;9.056;2024-03-02T12:19:51;32.50;1.00
506;DHT22;551;48.524;9.056;2024-03-02T12:22:18;32.90;1.00
506;DHT22;551;48.524;9.056;2024-03-02T12:24:44;32.70;1.00
506;DHT22;551;48.524;9.056;2024-03-02T12:27:16;32.30;1.00
506;DHT22;551;48.524;9.056;2024-03-02T12:29:41;32.50;1.00
506;DHT22;551;48.524;9.056;2024-03-02T12:32:08;33.00;1.00
506;DHT22;551;48.524;9.056;2024-03-02T12:34:34;32.70;1.00
506;DHT22;551;48.524;9.056;2024-03-02T12:36:59;33.00;1.00
506;DHT22;551;48.524;9.056;2024-03-02T12:39:25;33.20;1.00
506;DHT22;551;48.524;9.056;2024-03-02T12:41:52;32.50;1.00
506;DHT22;551;48.524;9.056;2024-03-02T12:44:19;32.20;1.00
506;DHT22;551;48.524;9.056;2024-03-02T12:46:46;32.10;1.00
506;DHT22;551;48.524;9.056;2024-03-02T12:49:14;31.90;1.00
506;DHT22;551;48.524;9.056;2024-03-02T12:51:41;32.20;1.00
506;DHT22;551;48.524;9.056;2024-03-02T12:54:08;32.40;1.00
506;DHT22;551;48.524;9.056;2024-03-02T12:56:35;32.00;1.00
506;DHT22;551;48.524;9.056;2024-03-02T12:59:01;31.70;1.00
506;DHT22;551;48.524;9.056;2024-03-02T13:01:27;31.30;1.00
506;DHT22;551;48.524;9.056;2024-03-02T13:03:53;30.90;1.00
506;DHT22;551;48.524;9.056;2024-03-02T13:06:21;30.70;1.00
506;DHT22;551;48.524;9.056;2024-03-02T13:08:46;30.70;1.00
506;DHT22;551;48.524;9.056;2024-03-02T13:11:13;30.50;1.00
506;DHT22;551;48.524;9.056;2024-03-02T13:13:39;29.80;1.00
506;DHT22;551;48.524;9.056;2024-03-02T13:16:14;29.00;1.00
506;DHT22;551;48.524;9.056;2024-03-02T13:18:41;29.20;1.00
506;DHT22;551;48.524;9.056;2024-03-02T13:21:08;29.70;1.00
506;DHT22;551;48.524;9.056;2024-03-02T13:23:34;30.10;1.00
506;DHT22;551;48.524;9.056;2024-03-02T13:25:59;30.60;1.00
506;DHT22;551;48.524;9.056;2024-03-02T13:28:25;30.20;1.00
506;DHT22;551;48.524;9.056;2024-03-02T13:30:51;29.70;1.00
506;DHT22;551;48.524;9.056;2024-03-02T13:33:17;29.80;1.00
506;DHT22;551;48.524;9.056;2024-03-02T13:35:49;29.60;1.00
506;DHT22;551;48.524;9.056;2024-03-02T13:38:16;29.50;1.00
506;DHT22;551;48.524;9.056;2024-03-02T13:40:42;29.20;1.00
506;DHT22;551;48.524;9.056;2024-03-02T13:43:07;29.30;1.00
506;DHT22;551;48.524;9.056;2024-03-02T13:45:33;28.90;1.00
506;DHT22;551;48.524;9.056;2024-03-02T13:48:00;28.60;1.00
506;DHT22;551;48.524;9.056;2024-03-02T13:50:25;28.60;1.00
506;DHT22;551;48.524;9.056;2024-03-02T13:52:51;27.90;1.00
506;DHT22;551;48.524;9.056;2024-03-02T13:55:16;27.20;1.00
506;DHT22;551;48.524;9.056;2024-03-02T13:57:42;26.70;1.00
506;DHT22;551;48.524;9.056;2024-03-02T14:00:08;26.50;1.00
506;DHT22;551;48.524;9.056;2024-03-02T14:02:36;26.10;1.00
506;DHT22;551;48.524;9.056;2024-03-02T14:05:01;26.00;1.00
506;DHT22;551;48.524;9.056;2024-03-02T14:07:27;26.20;1.00
506;DHT22;551;48.524;9.056;2024-03-02T14:09:53;26.00;1.00
506;DHT22;551;48.524;9.056;2024-03-02T14:12:18;25.50;1.00
506;DHT22;551;48.524;9.056;2024-03-02T14:14:44;24.90;1.00
506;DHT22;551;48.524;9.056;2024-03-02T14:17:09;24.20;1.00
506;DHT22;551;48.524;9.056;2024-03-02T14:19:43;23.50;1.00
506;DHT22;551;48.524;9.056;2024-03-02T14:22:08;23.00;1.00
506;DHT22;551;48.524;9.056;2024-03-02T14:24:34;22.60;1.00
506;DHT22;551;48.524;9.056;2024-03-02T14:26:59;22.20;1.00
506;DHT22;551;48.524;9.056;2024-03-02T14:29:28;21.80;1.00
506;DHT22;551;48.524;9.056;2024-03-02T14:31:54;21.50;1.00
506;DHT22;551;48.524;9.056;2024-03-02T14:34:19;21.40;1.00
506;DHT22;551;48.524;9.056;2024-03-02T14:36:45;21.10;1.00
506;DHT22;551;48.524;9.056;2024-03-02T14:39:11;21.00;1.00
506;DHT22;551;48.524;9.056;2024-03-02T14:41:37;20.90;1.00
506;DHT22;551;48.524;9.056;2024-03-02T14:44:03;20.60;1.00
506;DHT22;551;48.524;9.056;2024-03-02T14:46:29;20.40;1.00
506;DHT22;551;48.524;9.056;2024-03-02T14:48:54;20.30;1.00
506;DHT22;551;48.524;9.056;2024-03-02T14:51:20;20.30;1.00
506;DHT22;551;48.524;9.056;2024-03-02T14:53:45;20.20;1.00
506;DHT22;551;48.524;9.056;2024-03-02T14:56:11;19.90;1.00
506;DHT22;551;48.524;9.056;2024-03-02T14:58:38;19.70;1.00
506;DHT22;551;48.524;9.056;2024-03-02T15:01:04;19.50;1.00
506;DHT22;551;48.524;9.056;2024-03-02T15:03:31;19.20;1.00
506;DHT22;551;48.524;9.056;2024-03-02T15:05:56;19.10;1.00
506;DHT22;551;48.524;9.056;2024-03-02T15:08:22;19.00;1.00
506;DHT22;551;48.524;9.056;2024-03-02T15:10:48;18.90;1.00
506;DHT22;551;48.524;9.056;2024-03-02T15:13:13;18.80;1.00
506;DHT22;551;48.524;9.056;2024-03-02T15:15:39;18.50;1.00
506;DHT22;551;48.524;9.056;2024-03-02T15:18:04;18.40;1.00
506;DHT22;551;48.524;9.056;2024-03-02T15:20:30;18.40;1.00
506;DHT22;551;48.524;9.056;2024-03-02T15:22:55;18.30;1.00
506;DHT22;551;48.524;9.056;2024-03-02T15:25:21;18.10;1.00
506;DHT22;551;48.524;9.056;2024-03-02T15:27:46;18.10;1.00
506;DHT22;551;48.524;9.056;2024-03-02T15:30:12;18.00;1.00
506;DHT22;551;48.524;9.056;2024-03-02T15:32:38;17.90;1.00
506;DHT22;551;48.524;9.056;2024-03-02T15:35:05;17.90;1.00
506;DHT22;551;48.524;9.056;2024-03-02T15:37:31;17.80;1.00
506;DHT22;551;48.524;9.056;2024-03-02T15:39:56;17.90;1.00
506;DHT22;551;48.524;9.056;2024-03-02T15:42:22;17.90;1.00
506;DHT22;551;48.524;9.056;2024-03-02T15:44:49;17.80;1.00
506;DHT22;551;48.524;9.056;2024-03-02T15:47:14;17.80;1.00
506;DHT22;551;48.524;9.056;2024-03-02T15:49:40;17.70;1.00
506;DHT22;551;48.524;9.056;2024-03-02T15:52:09;17.60;1.00
506;DHT22;551;48.524;9.056;2024-03-02T15:54:34;17.60;1.00
506;DHT22;551;48.524;9.056;2024-03-02T15:57:00;17.50;1.00
506;DHT22;551;48.524;9.056;2024-03-02T15:59:25;17.50;1.00
506;DHT22;551;48.524;9.056;2024-03-02T16:01:51;17.40;1.00
506;DHT22;551;48.524;9.056;2024-03-02T16:04:16;17.50;1.00
506;DHT22;551;48.524;9.056;2024-03-02T16:06:42;17.50;1.00
506;DHT22;551;48.524;9.056;2024-03-02T16:09:07;17.40;1.00
506;DHT22;551;48.524;9.056;2024-03-02T16:11:35;17.30;1.00
506;DHT22;551;48.524;9.056;2024-03-02T16:14:01;17.10;1.00
506;DHT22;551;48.524;9.056;2024-03-02T16:16:27;17.10;1.00
506;DHT22;551;48.524;9.056;2024-03-02T16:18:52;17.00;1.00
506;DHT22;551;48.524;9.056;2024-03-02T16:21:18;16.90;1.00
506;DHT22;551;48.524;9.056;2024-03-02T16:23:45;16.80;1.00
506;DHT22;551;48.524;9.056;2024-03-02T16:26:11;16.70;1.00
506;DHT22;551;48.524;9.056;2024-03-02T16:28:37;16.70;1.00
506;DHT22;551;48.524;9.056;2024-03-02T16:31:03;16.60;1.00
506;DHT22;551;48.524;9.056;2024-03-02T16:33:28;16.40;1.00
506;DHT22;551;48.524;9.056;2024-03-02T16:35:54;16.30;1.00
506;DHT22;551;48.524;9.056;2024-03-02T16:38:19;16.20;1.00
506;DHT22;551;48.524;9.056;2024-03-02T16:40:45;16.10;1.00
506;DHT22;551;48.524;9.056;2024-03-02T16:43:11;16.00;1.00
506;DHT22;551;48.524;9.056;2024-03-02T16:45:37;15.90;1.00
506;DHT22;551;48.524;9.056;2024-03-02T16:48:02;15.90;1.00
506;DHT22;551;48.524;9.056;2024-03-02T16:50:32;15.80;1.00
506;DHT22;551;48.524;9.056;2024-03-02T16:52:57;15.70;1.00
506;DHT22;551;48.524;9.056;2024-03-02T16:55:23;15.70;1.00
506;DHT22;551;48.524;9.056;2024-03-02T16:57:49;15.60;1.00
506;DHT22;551;48.524;9.056;2024-03-02T17:00:15;15.40;1.00
506;DHT22;551;48.524;9.056;2024-03-02T17:02:40;15.40;1.00
506;DHT22;551;48.524;9.056;2024-03-02T17:05:06;15.30;1.00
506;DHT22;551;48.524;9.056;2024-03-02T17:07:32;15.30;1.00
506;DHT22;551;48.524;9.056;2024-03-02T17:09:58;15.20;1.00